createdAt,value
2016-04-21T00:00:25.724Z,37.89
2016-04-21T00:01:25.570Z,37.89
2016-04-21T00:02:25.730Z,37.89
2016-04-21T00:03:25.733Z,38.08
2016-04-21T00:04:25.735Z,37.89
2016-04-21T00:05:25.753Z,37.79
2016-04-21T00:06:25.755Z,38.08
2016-04-21T00:07:25.758Z,37.89
2016-04-21T00:08:25.761Z,37.89
2016-04-21T00:09:25.780Z,37.89
2016-04-21T00:10:25.783Z,37.79
2016-04-21T00:11:25.785Z,37.79
2016-04-21T00:12:25.819Z,38.08
2016-04-21T00:13:25.806Z,37.89
2016-04-21T00:14:25.824Z,37.79
2016-04-21T00:15:25.827Z,38.08
2016-04-21T00:16:25.829Z,37.98
2016-04-21T00:17:25.832Z,38.08
2016-04-21T00:18:25.851Z,38.08
2016-04-21T00:19:25.838Z,38.08
2016-04-21T00:20:25.841Z,37.89
2016-04-21T00:21:25.859Z,37.79
2016-04-21T00:22:25.862Z,37.79
2016-04-21T00:23:25.879Z,37.79
2016-04-21T00:24:25.882Z,37.79
2016-04-21T00:25:25.884Z,37.89
2016-04-21T00:26:25.887Z,37.7
2016-04-21T00:27:25.906Z,37.79
2016-04-21T00:28:25.925Z,37.79
2016-04-21T00:29:25.928Z,37.79
2016-04-21T00:30:25.914Z,37.7
2016-04-21T00:31:25.917Z,37.79
2016-04-21T00:32:25.935Z,37.79
2016-04-21T00:33:26.438Z,37.79
2016-04-21T00:34:25.941Z,37.79
2016-04-21T00:35:25.958Z,37.7
2016-04-21T00:36:25.978Z,37.7
2016-04-21T00:37:25.980Z,37.79
2016-04-21T00:38:25.982Z,37.98
2016-04-21T00:39:25.986Z,37.7
2016-04-21T00:40:26.003Z,37.7
2016-04-21T00:41:25.990Z,38.08
2016-04-21T00:42:26.008Z,37.79
2016-04-21T00:43:26.011Z,37.7
2016-04-21T00:44:26.014Z,37.7
2016-04-21T00:45:26.033Z,37.79
2016-04-21T00:46:26.019Z,37.7
2016-04-21T00:47:26.038Z,37.98
2016-04-21T00:48:26.040Z,37.89
2016-04-21T00:49:26.059Z,37.89
2016-04-21T00:50:26.062Z,37.89
2016-04-21T00:51:26.064Z,37.7
2016-04-21T00:52:26.068Z,37.79
2016-04-21T00:53:26.085Z,37.89
2016-04-21T00:54:26.088Z,37.98
2016-04-21T00:55:26.107Z,37.79
2016-04-21T00:56:26.093Z,37.98
2016-04-21T00:57:26.112Z,37.79
2016-04-21T00:58:26.098Z,37.79
2016-04-21T00:59:26.117Z,37.89
2016-04-21T01:00:26.136Z,37.79
2016-04-21T01:01:26.139Z,37.79
2016-04-21T01:02:26.156Z,37.89
2016-04-21T01:03:26.159Z,37.87
2016-04-21T01:04:26.177Z,37.89
2016-04-21T01:05:26.210Z,37.87
2016-04-21T01:06:26.274Z,37.89
2016-04-21T01:07:26.321Z,37.87
2016-04-21T01:08:26.369Z,37.96
2016-04-21T01:09:26.438Z,37.87
2016-04-21T01:10:26.443Z,37.96
2016-04-21T01:11:26.462Z,37.89
2016-04-21T01:12:26.481Z,37.77
2016-04-21T01:13:26.531Z,37.87
2016-04-21T01:14:26.530Z,37.87
2016-04-21T01:15:26.555Z,37.87
2016-04-21T01:16:26.563Z,37.87
2016-04-21T01:17:26.572Z,37.87
2016-04-21T01:18:26.580Z,37.77
2016-04-21T01:19:26.588Z,37.77
2016-04-21T01:20:26.609Z,37.89
2016-04-21T01:21:26.628Z,37.96
2016-04-21T01:22:26.623Z,37.89
2016-04-21T01:23:26.642Z,37.87
2016-04-21T01:24:26.663Z,37.77
2016-04-21T01:25:26.651Z,37.89
2016-04-21T01:26:26.670Z,37.77
2016-04-21T01:27:26.674Z,37.87
2016-04-21T01:28:26.677Z,37.87
2016-04-21T01:29:26.680Z,37.96
2016-04-21T01:30:26.698Z,37.87
2016-04-21T01:31:26.686Z,37.79
2016-04-21T01:32:26.689Z,37.96
2016-04-21T01:33:26.707Z,37.87
2016-04-21T01:34:26.710Z,38.16
2016-04-21T01:35:26.713Z,37.87
2016-04-21T01:36:26.732Z,37.77
2016-04-21T01:37:26.734Z,37.77
2016-04-21T01:38:26.738Z,37.87
2016-04-21T01:39:26.756Z,38.16
2016-04-21T01:40:26.759Z,37.77
2016-04-21T01:41:26.776Z,38.16
2016-04-21T01:42:26.764Z,38.26
2016-04-21T01:43:26.766Z,37.87
2016-04-21T01:44:26.784Z,37.96
2016-04-21T01:45:26.787Z,37.87
2016-04-21T01:46:26.790Z,37.96
2016-04-21T01:47:26.809Z,38.26
2016-04-21T01:48:26.811Z,37.96
2016-04-21T01:49:26.814Z,37.87
2016-04-21T01:50:26.832Z,38.16
2016-04-21T01:51:26.835Z,38.16
2016-04-21T01:52:26.853Z,38.45
2016-04-21T01:53:26.841Z,37.87
2016-04-21T01:54:26.875Z,38.35
2016-04-21T01:55:26.861Z,38.06
2016-04-21T01:56:26.849Z,38.35
2016-04-21T01:57:26.866Z,38.16
2016-04-21T01:58:26.869Z,38.16
2016-04-21T01:59:26.887Z,38.26
2016-04-21T02:00:26.874Z,38.26
2016-04-21T02:01:26.908Z,38.16
2016-04-21T02:02:26.896Z,38.06
2016-04-21T02:03:26.914Z,38.35
2016-04-21T02:04:26.932Z,38.16
2016-04-21T02:05:26.951Z,38.26
2016-04-21T02:06:26.953Z,38.16
2016-04-21T02:07:26.957Z,38.16
2016-04-21T02:08:26.959Z,38.26
2016-04-21T02:09:26.977Z,38.26
2016-04-21T02:10:26.964Z,38.35
2016-04-21T02:11:26.982Z,38.26
2016-04-21T02:12:26.984Z,38.26
2016-04-21T02:13:27.020Z,38.16
2016-04-21T02:14:27.007Z,38.35
2016-04-21T02:15:26.993Z,38.26
2016-04-21T02:16:27.011Z,38.26
2016-04-21T02:17:26.998Z,38.16
2016-04-21T02:18:27.016Z,38.16
2016-04-21T02:19:27.019Z,38.26
2016-04-21T02:20:27.039Z,38.16
2016-04-21T02:21:27.041Z,38.26
2016-04-21T02:22:27.043Z,38.35
2016-04-21T02:23:27.046Z,38.16
2016-04-21T02:24:27.065Z,38.35
2016-04-21T02:25:27.083Z,38.35
2016-04-21T02:26:27.086Z,38.35
2016-04-21T02:27:27.088Z,37.96
2016-04-21T02:28:27.075Z,37.96
2016-04-21T02:29:27.109Z,37.96
2016-04-21T02:30:27.096Z,38.35
2016-04-21T02:31:27.099Z,37.96
2016-04-21T02:32:27.132Z,38.35
2016-04-21T02:33:27.119Z,38.35
2016-04-21T02:34:27.138Z,38.06
2016-04-21T02:35:27.140Z,37.96
2016-04-21T02:36:27.144Z,38.16
2016-04-21T02:37:27.146Z,38.06
2016-04-21T02:38:27.165Z,37.96
2016-04-21T02:39:27.152Z,38.06
2016-04-21T02:40:27.170Z,38.16
2016-04-21T02:41:27.157Z,38.06
2016-04-21T02:42:27.175Z,38.16
2016-04-21T02:43:27.193Z,37.96
2016-04-21T02:44:27.212Z,38.35
2016-04-21T02:45:27.198Z,38.06
2016-04-21T02:46:27.218Z,38.26
2016-04-21T02:47:27.220Z,38.06
2016-04-21T02:48:27.223Z,37.96
2016-04-21T02:49:27.225Z,38.35
2016-04-21T02:50:27.244Z,38.06
2016-04-21T02:51:27.231Z,38.16
2016-04-21T02:52:27.249Z,38.06
2016-04-21T02:53:27.252Z,38.16
2016-04-21T02:54:27.255Z,38.06
2016-04-21T02:55:27.272Z,38.06
2016-04-21T02:56:27.275Z,38.06
2016-04-21T02:57:27.277Z,38.16
2016-04-21T02:58:27.281Z,37.96
2016-04-21T02:59:27.314Z,37.96
2016-04-21T03:00:27.302Z,38.06
2016-04-21T03:01:27.305Z,37.96
2016-04-21T03:02:27.307Z,38.06
2016-04-21T03:03:27.325Z,37.96
2016-04-21T03:04:27.313Z,37.87
2016-04-21T03:05:27.346Z,38.06
2016-04-21T03:06:27.333Z,37.87
2016-04-21T03:07:27.351Z,38.06
2016-04-21T03:08:27.354Z,37.96
2016-04-21T03:09:27.374Z,38.35
2016-04-21T03:10:27.360Z,38.06
2016-04-21T03:11:27.379Z,37.96
2016-04-21T03:12:27.381Z,37.87
2016-04-21T03:13:27.384Z,38.06
2016-04-21T03:14:27.387Z,37.96
2016-04-21T03:15:27.404Z,38.06
2016-04-21T03:16:27.423Z,37.96
2016-04-21T03:17:27.409Z,37.87
2016-04-21T03:18:27.412Z,37.87
2016-04-21T03:19:27.431Z,37.96
2016-04-21T03:20:27.417Z,37.96
2016-04-21T03:21:27.441Z,37.96
2016-04-21T03:22:27.432Z,37.96
2016-04-21T03:23:27.466Z,37.96
2016-04-21T03:24:27.453Z,37.96
2016-04-21T03:25:27.471Z,38.06
2016-04-21T03:26:27.459Z,37.96
2016-04-21T03:27:27.476Z,37.87
2016-04-21T03:28:27.480Z,38.06
2016-04-21T03:29:27.498Z,37.87
2016-04-21T03:30:27.500Z,37.87
2016-04-21T03:31:27.503Z,37.87
2016-04-21T03:32:27.522Z,37.96
2016-04-21T03:33:27.509Z,37.87
2016-04-21T03:34:27.527Z,37.96
2016-04-21T03:35:27.530Z,37.96
2016-04-21T03:36:27.533Z,38.35
2016-04-21T03:37:27.551Z,38.24
2016-04-21T03:38:27.553Z,38.35
2016-04-21T03:39:27.556Z,38.35
2016-04-21T03:40:27.558Z,38.26
2016-04-21T03:41:27.577Z,37.85
2016-04-21T03:42:27.564Z,38.35
2016-04-21T03:43:27.583Z,38.35
2016-04-21T03:44:27.585Z,37.95
2016-04-21T03:45:27.603Z,38.35
2016-04-21T03:46:27.605Z,38.26
2016-04-21T03:47:27.609Z,38.35
2016-04-21T03:48:27.611Z,38.14
2016-04-21T03:49:27.614Z,38.35
2016-04-21T03:50:27.632Z,38.16
2016-04-21T03:51:27.619Z,38.35
2016-04-21T03:52:27.668Z,38.33
2016-04-21T03:53:27.672Z,38.35
2016-04-21T03:54:27.643Z,38.33
2016-04-21T03:55:27.662Z,38.33
2016-04-21T03:56:27.680Z,37.87
2016-04-21T03:57:27.667Z,38.26
2016-04-21T03:58:27.701Z,38.26
2016-04-21T03:59:27.703Z,38.35
2016-04-21T04:00:27.722Z,38.26
2016-04-21T04:01:27.693Z,38.33
2016-04-21T04:02:27.712Z,37.87
2016-04-21T04:03:27.730Z,38.45
2016-04-21T04:04:27.717Z,38.26
2016-04-21T04:05:27.736Z,37.87
2016-04-21T04:06:27.738Z,38.33
2016-04-21T04:07:27.756Z,38.16
2016-04-21T04:08:27.743Z,38.35
2016-04-21T04:09:27.747Z,38.33
2016-04-21T04:10:27.764Z,38.26
2016-04-21T04:11:27.767Z,38.35
2016-04-21T04:12:27.785Z,38.54
2016-04-21T04:13:27.772Z,38.16
2016-04-21T04:14:27.805Z,38.26
2016-04-21T04:15:27.793Z,38.35
2016-04-21T04:16:27.796Z,38.45
2016-04-21T04:17:27.799Z,38.45
2016-04-21T04:18:27.802Z,38.16
2016-04-21T04:19:27.819Z,38.33
2016-04-21T04:20:27.838Z,38.26
2016-04-21T04:21:27.841Z,38.16
2016-04-21T04:22:27.844Z,38.45
2016-04-21T04:23:27.862Z,38.35
2016-04-21T04:24:27.849Z,38.26
2016-04-21T04:25:27.851Z,38.16
2016-04-21T04:26:27.854Z,38.35
2016-04-21T04:27:27.873Z,38.35
2016-04-21T04:28:27.890Z,38.35
2016-04-21T04:29:27.879Z,38.35
2016-04-21T04:30:27.896Z,38.33
2016-04-21T04:31:27.884Z,38.26
2016-04-21T04:32:27.901Z,38.35
2016-04-21T04:33:27.904Z,38.35
2016-04-21T04:34:27.906Z,38.26
2016-04-21T04:35:27.942Z,38.24
2016-04-21T04:36:27.944Z,38.24
2016-04-21T04:37:27.947Z,38.35
2016-04-21T04:38:27.950Z,37.87
2016-04-21T04:39:27.952Z,38.35
2016-04-21T04:40:27.955Z,38.35
2016-04-21T04:41:27.972Z,38.26
2016-04-21T04:42:27.960Z,38.35
2016-04-21T04:43:27.994Z,38.26
2016-04-21T04:44:27.981Z,38.14
2016-04-21T04:45:27.999Z,38.35
2016-04-21T04:46:28.017Z,38.35
2016-04-21T04:47:28.035Z,38.35
2016-04-21T04:48:28.008Z,38.35
2016-04-21T04:49:28.025Z,38.26
2016-04-21T04:50:28.060Z,38.35
2016-04-21T04:51:28.046Z,38.35
2016-04-21T04:52:28.049Z,38.26
2016-04-21T04:53:28.052Z,38.35
2016-04-21T04:54:28.039Z,38.35
2016-04-21T04:55:28.058Z,38.16
2016-04-21T04:56:28.060Z,38.43
2016-04-21T04:57:28.110Z,38.26
2016-04-21T04:58:28.112Z,38.14
2016-04-21T04:59:28.084Z,38.35
2016-04-21T05:00:28.086Z,38.26
2016-04-21T05:01:28.105Z,38.35
2016-04-21T05:02:28.107Z,38.16
2016-04-21T05:03:28.110Z,38.26
2016-04-21T05:04:28.112Z,38.35
2016-04-21T05:05:28.131Z,38.16
2016-04-21T05:06:28.133Z,38.45
2016-04-21T05:07:28.136Z,38.26
2016-04-21T05:08:28.140Z,38.43
2016-04-21T05:09:28.142Z,38.45
2016-04-21T05:10:28.161Z,38.26
2016-04-21T05:11:28.163Z,38.45
2016-04-21T05:12:28.181Z,38.26
2016-04-21T05:13:28.168Z,38.35
2016-04-21T05:14:28.186Z,38.26
2016-04-21T05:15:28.189Z,38.45
2016-04-21T05:16:28.192Z,38.33
2016-04-21T05:17:28.194Z,38.35
2016-04-21T05:18:28.197Z,38.35
2016-04-21T05:19:28.200Z,38.45
2016-04-21T05:20:28.203Z,38.33
2016-04-21T05:21:28.252Z,38.45
2016-04-21T05:22:28.239Z,38.35
2016-04-21T05:23:28.241Z,38.45
2016-04-21T05:24:28.244Z,38.45
2016-04-21T05:25:28.247Z,38.26
2016-04-21T05:26:28.265Z,38.45
2016-04-21T05:27:28.268Z,38.45
2016-04-21T05:28:28.287Z,38.45
2016-04-21T05:29:28.274Z,38.14
2016-04-21T05:30:28.293Z,38.16
2016-04-21T05:31:28.295Z,38.16
2016-04-21T05:32:28.298Z,38.16
2016-04-21T05:33:28.399Z,38.45
2016-04-21T05:34:28.716Z,38.06
2016-04-21T05:35:28.154Z,38.45
2016-04-21T05:36:28.938Z,38.45
2016-04-21T05:37:28.353Z,38.16
2016-04-21T05:38:28.340Z,38.45
2016-04-21T05:39:28.343Z,38.45
2016-04-21T05:40:28.346Z,38.45
2016-04-21T05:41:28.348Z,38.54
2016-04-21T05:42:28.366Z,38.35
2016-04-21T05:43:28.370Z,38.45
2016-04-21T05:44:28.387Z,38.45
2016-04-21T05:45:28.389Z,38.45
2016-04-21T05:46:28.378Z,38.54
2016-04-21T05:47:28.395Z,38.45
2016-04-21T05:48:28.398Z,38.45
2016-04-21T05:49:28.417Z,38.26
2016-04-21T05:50:28.403Z,38.35
2016-04-21T05:51:28.406Z,38.45
2016-04-21T05:52:28.408Z,38.45
2016-04-21T05:53:28.444Z,38.45
2016-04-21T05:54:28.430Z,38.74
2016-04-21T05:55:28.448Z,39.03
2016-04-21T05:56:28.452Z,39.31
2016-04-21T05:57:28.454Z,39.99
2016-04-21T05:58:28.471Z,39.79
2016-04-21T05:59:28.460Z,40.28
2016-04-21T06:00:28.477Z,40.09
2016-04-21T06:01:28.480Z,40.19
2016-04-21T06:02:28.343Z,40.37
2016-04-21T06:03:28.485Z,40.28
2016-04-21T06:04:28.519Z,40.37
2016-04-21T06:05:28.507Z,40.19
2016-04-21T06:06:28.540Z,40.37
2016-04-21T06:07:28.543Z,40.28
2016-04-21T06:08:28.545Z,40.28
2016-04-21T06:09:28.548Z,40.28
2016-04-21T06:10:28.551Z,40.28
2016-04-21T06:11:28.554Z,40.19
2016-04-21T06:12:28.556Z,40.09
2016-04-21T06:13:28.559Z,40.09
2016-04-21T06:14:28.578Z,39.79
2016-04-21T06:15:28.565Z,39.79
2016-04-21T06:16:28.583Z,39.79
2016-04-21T06:17:28.601Z,39.79
2016-04-21T06:18:28.604Z,39.89
2016-04-21T06:19:28.606Z,39.89
2016-04-21T06:20:28.625Z,39.89
2016-04-21T06:21:28.627Z,40.09
2016-04-21T06:22:28.646Z,39.99
2016-04-21T06:23:28.633Z,40.19
2016-04-21T06:24:28.635Z,40.19
2016-04-21T06:25:28.638Z,40.28
2016-04-21T06:26:28.641Z,39.7
2016-04-21T06:27:28.660Z,39.7
2016-04-21T06:28:28.677Z,39.7
2016-04-21T06:29:28.680Z,39.79
2016-04-21T06:30:28.683Z,39.79
2016-04-21T06:31:28.702Z,39.7
2016-04-21T06:32:28.705Z,39.79
2016-04-21T06:33:28.707Z,39.51
2016-04-21T06:34:28.710Z,39.61
2016-04-21T06:35:28.712Z,39.7
2016-04-21T06:36:28.715Z,39.61
2016-04-21T06:37:28.718Z,39.41
2016-04-21T06:38:28.752Z,39.31
2016-04-21T06:39:28.754Z,39.41
2016-04-21T06:40:28.741Z,39.41
2016-04-21T06:41:28.760Z,39.41
2016-04-21T06:42:28.746Z,39.31
2016-04-21T06:43:28.764Z,39.22
2016-04-21T06:44:28.784Z,39.22
2016-04-21T06:45:28.786Z,39.22
2016-04-21T06:46:28.789Z,39.12
2016-04-21T06:47:28.807Z,39.22
2016-04-21T06:48:28.795Z,39.22
2016-04-21T06:49:28.812Z,39.61
2016-04-21T06:50:28.800Z,39.51
2016-04-21T06:51:28.834Z,39.51
2016-04-21T06:52:28.836Z,39.41
2016-04-21T06:53:28.839Z,39.31
2016-04-21T06:54:28.842Z,39.41
2016-04-21T06:55:28.844Z,38.83
2016-04-21T06:56:28.863Z,38.83
2016-04-21T06:57:28.866Z,38.83
2016-04-21T06:58:28.868Z,38.93
2016-04-21T06:59:28.871Z,38.93
2016-04-21T07:00:28.874Z,39.12
2016-04-21T07:01:28.891Z,39.03
2016-04-21T07:02:28.879Z,39.12
2016-04-21T07:03:28.897Z,39.12
2016-04-21T07:04:28.915Z,39.12
2016-04-21T07:05:28.918Z,39.22
2016-04-21T07:06:28.905Z,39.22
2016-04-21T07:07:28.938Z,39.31
2016-04-21T07:08:28.941Z,39.22
2016-04-21T07:09:28.944Z,39.31
2016-04-21T07:10:28.946Z,39.31
2016-04-21T07:11:28.965Z,39.12
2016-04-21T07:12:28.968Z,38.93
2016-04-21T07:13:28.971Z,38.74
2016-04-21T07:14:28.973Z,38.93
2016-04-21T07:15:28.992Z,38.83
2016-04-21T07:16:28.994Z,38.93
2016-04-21T07:17:28.997Z,39.03
2016-04-21T07:18:29.000Z,39.12
2016-04-21T07:19:29.017Z,39.03
2016-04-21T07:20:29.021Z,39.03
2016-04-21T07:21:29.023Z,38.95
2016-04-21T07:22:29.025Z,38.64
2016-04-21T07:23:29.045Z,38.64
2016-04-21T07:24:29.032Z,38.74
2016-04-21T07:25:29.050Z,38.74
2016-04-21T07:26:29.037Z,38.54
2016-04-21T07:27:29.056Z,38.74
2016-04-21T07:28:29.074Z,39.43
2016-04-21T07:29:29.077Z,40.14
2016-04-21T07:30:29.079Z,40.8
2016-04-21T07:31:29.097Z,40.97
2016-04-21T07:32:29.100Z,40.99
2016-04-21T07:33:29.102Z,40.39
2016-04-21T07:34:29.121Z,41.02
2016-04-21T07:35:29.123Z,41.31
2016-04-21T07:36:29.110Z,41.77
2016-04-21T07:37:29.114Z,41.22
2016-04-21T07:38:29.132Z,40.85
2016-04-21T07:39:29.118Z,41.05
2016-04-21T07:40:29.122Z,40.85
2016-04-21T07:41:29.140Z,40.68
2016-04-21T07:42:29.143Z,40.3
2016-04-21T07:43:29.146Z,40.2
2016-04-21T07:44:29.163Z,40.03
2016-04-21T07:45:29.166Z,39.93
2016-04-21T07:46:29.168Z,39.64
2016-04-21T07:47:29.171Z,39.28
2016-04-21T07:48:29.003Z,39.28
2016-04-21T07:49:29.161Z,39.09
2016-04-21T07:50:29.211Z,40.41
2016-04-21T07:51:29.182Z,40.2
2016-04-21T07:52:29.185Z,40.03
2016-04-21T07:53:29.203Z,39.28
2016-04-21T07:54:29.190Z,39.64
2016-04-21T07:55:29.225Z,39.72
2016-04-21T07:56:29.211Z,40.49
2016-04-21T07:57:29.214Z,41.24
2016-04-21T07:58:29.217Z,41.5
2016-04-21T07:59:29.235Z,42.18
2016-04-21T08:00:29.238Z,42.27
2016-04-21T08:01:29.240Z,41.6
2016-04-21T08:02:29.244Z,41.14
2016-04-21T08:03:29.246Z,42.1
2016-04-21T08:04:29.232Z,42.76
2016-04-21T08:05:29.252Z,42.37
2016-04-21T08:06:29.269Z,41.99
2016-04-21T08:07:29.272Z,41.79
2016-04-21T08:08:29.275Z,41.24
2016-04-21T08:09:29.262Z,42.2
2016-04-21T08:10:29.280Z,42.18
2016-04-21T08:11:29.282Z,42.56
2016-04-21T08:12:29.270Z,42.56
2016-04-21T08:13:29.273Z,42.37
2016-04-21T08:14:29.291Z,42.47
2016-04-21T08:15:29.279Z,42.76
2016-04-21T08:16:29.296Z,42.27
2016-04-21T08:17:29.299Z,42
2016-04-21T08:18:29.301Z,42.2
2016-04-21T08:19:29.305Z,43.23
2016-04-21T08:20:29.307Z,42.66
2016-04-21T08:21:29.310Z,43.14
2016-04-21T08:22:29.328Z,43.79
2016-04-21T08:23:29.330Z,43.6
2016-04-21T08:24:29.350Z,43.6
2016-04-21T08:25:29.336Z,42.85
2016-04-21T08:26:29.339Z,42.27
2016-04-21T08:27:29.403Z,42
2016-04-21T08:28:29.345Z,41.62
2016-04-21T08:29:29.347Z,41.45
2016-04-21T08:30:29.349Z,41.35
2016-04-21T08:31:29.369Z,40.89
2016-04-21T08:32:29.371Z,40.88
2016-04-21T08:33:29.374Z,40.8
2016-04-21T08:34:29.642Z,40.99
2016-04-21T08:35:29.394Z,40.31
2016-04-21T08:36:29.382Z,40.41
2016-04-21T08:37:29.399Z,40.41
2016-04-21T08:38:29.402Z,40.24
2016-04-21T08:39:29.405Z,40.43
2016-04-21T08:40:29.392Z,40.34
2016-04-21T08:41:29.411Z,40.34
2016-04-21T08:42:29.398Z,40.34
2016-04-21T08:43:29.416Z,40.24
2016-04-21T08:44:29.435Z,40.34
2016-04-21T08:45:29.437Z,40.24
2016-04-21T08:46:29.439Z,40.34
2016-04-21T08:47:29.458Z,40.26
2016-04-21T08:48:29.461Z,40.16
2016-04-21T08:49:29.463Z,40.36
2016-04-21T08:50:29.465Z,40.36
2016-04-21T08:51:29.468Z,40.26
2016-04-21T08:52:29.476Z,40.16
2016-04-21T08:53:29.495Z,40.45
2016-04-21T08:54:29.466Z,40.26
2016-04-21T08:55:29.500Z,39.97
2016-04-21T08:56:29.502Z,40.26
2016-04-21T08:57:29.505Z,40.37
2016-04-21T08:58:29.508Z,40.36
2016-04-21T08:59:29.541Z,40.28
2016-04-21T09:00:29.560Z,40.37
2016-04-21T09:01:29.533Z,39.97
2016-04-21T09:02:29.550Z,40.09
2016-04-21T09:03:29.552Z,39.61
2016-04-21T09:04:29.555Z,39.89
2016-04-21T09:05:29.558Z,39.99
2016-04-21T09:06:29.561Z,39.89
2016-04-21T09:07:29.579Z,39.89
2016-04-21T09:08:29.582Z,39.89
2016-04-21T09:09:29.569Z,40.09
2016-04-21T09:10:29.587Z,39.99
2016-04-21T09:11:29.590Z,39.7
2016-04-21T09:12:29.607Z,39.79
2016-04-21T09:13:29.627Z,39.79
2016-04-21T09:14:29.630Z,39.79
2016-04-21T09:15:29.632Z,39.72
2016-04-21T09:16:29.650Z,39.62
2016-04-21T09:17:29.668Z,39.53
2016-04-21T09:18:29.655Z,39.53
2016-04-21T09:19:29.659Z,39.43
2016-04-21T09:20:29.692Z,39.43
2016-04-21T09:21:29.664Z,39.14
2016-04-21T09:22:29.666Z,39.24
2016-04-21T09:23:29.684Z,38.85
2016-04-21T09:24:29.703Z,39.14
2016-04-21T09:25:29.722Z,39.04
2016-04-21T09:26:29.709Z,39.24
2016-04-21T09:27:29.728Z,38.95
2016-04-21T09:28:29.730Z,38.85
2016-04-21T09:29:29.733Z,39.06
2016-04-21T09:30:29.735Z,39.16
2016-04-21T09:31:29.738Z,38.97
2016-04-21T09:32:29.740Z,39.43
2016-04-21T09:33:29.789Z,39.16
2016-04-21T09:34:29.746Z,39.36
2016-04-21T09:35:29.764Z,39.16
2016-04-21T09:36:29.766Z,39.64
2016-04-21T09:37:29.785Z,39.45
2016-04-21T09:38:29.787Z,39.54
2016-04-21T09:39:29.650Z,39.26
2016-04-21T09:40:29.840Z,39.45
2016-04-21T09:41:29.811Z,39.45
2016-04-21T09:42:29.829Z,39.06
2016-04-21T09:43:29.832Z,39.16
2016-04-21T09:44:29.835Z,39.06
2016-04-21T09:45:29.837Z,39.45
2016-04-21T09:46:29.856Z,39.06
2016-04-21T09:47:29.859Z,39.45
2016-04-21T09:48:29.861Z,39.28
2016-04-21T09:49:29.880Z,38.79
2016-04-21T09:50:29.882Z,38.6
2016-04-21T09:51:29.884Z,38.68
2016-04-21T09:52:29.888Z,38.58
2016-04-21T09:53:29.906Z,38.1
2016-04-21T09:54:29.956Z,38.1
2016-04-21T09:55:29.912Z,38.39
2016-04-21T09:56:29.914Z,38.29
2016-04-21T09:57:29.917Z,38.58
2016-04-21T09:58:29.950Z,38.49
2016-04-21T09:59:29.939Z,38.2
2016-04-21T10:00:29.941Z,38.29
2016-04-21T10:01:29.959Z,38.39
2016-04-21T10:02:29.947Z,38.01
2016-04-21T10:03:29.964Z,38.39
2016-04-21T10:04:29.966Z,37.91
2016-04-21T10:05:29.985Z,38.01
2016-04-21T10:06:29.988Z,38.1
2016-04-21T10:07:30.006Z,38.2
2016-04-21T10:08:30.008Z,38.2
2016-04-21T10:09:30.011Z,38.01
2016-04-21T10:10:30.046Z,38.01
2016-04-21T10:11:30.093Z,38.29
2016-04-21T10:12:30.139Z,37.91
2016-04-21T10:13:30.186Z,37.81
2016-04-21T10:14:30.265Z,37.81
2016-04-21T10:15:30.306Z,38.12
2016-04-21T10:16:30.310Z,37.93
2016-04-21T10:17:30.328Z,37.91
2016-04-21T10:18:30.362Z,37.71
2016-04-21T10:19:30.366Z,37.81
2016-04-21T10:20:30.391Z,37.81
2016-04-21T10:21:30.399Z,38.02
2016-04-21T10:22:30.425Z,37.83
2016-04-21T10:23:30.433Z,37.83
2016-04-21T10:24:30.488Z,37.83
2016-04-21T10:25:30.441Z,37.93
2016-04-21T10:26:30.447Z,37.83
2016-04-21T10:27:30.467Z,37.83
2016-04-21T10:28:30.472Z,38.12
2016-04-21T10:29:30.477Z,37.25
2016-04-21T10:30:30.497Z,37.35
2016-04-21T10:31:30.501Z,37.45
2016-04-21T10:32:30.520Z,37.15
2016-04-21T10:33:30.507Z,37.15
2016-04-21T10:34:30.541Z,36.96
2016-04-21T10:35:30.530Z,37.54
2016-04-21T10:36:30.533Z,36.96
2016-04-21T10:37:30.536Z,36.96
2016-04-21T10:38:30.555Z,37.06
2016-04-21T10:39:30.589Z,36.96
2016-04-21T10:40:30.451Z,36.67
2016-04-21T10:41:30.563Z,36.87
2016-04-21T10:42:30.582Z,36.87
2016-04-21T10:43:30.585Z,36.96
2016-04-21T10:44:30.587Z,36.77
2016-04-21T10:45:30.606Z,36.87
2016-04-21T10:46:30.593Z,36.88
2016-04-21T10:47:30.611Z,36.69
2016-04-21T10:48:30.615Z,36.79
2016-04-21T10:49:30.632Z,36.88
2016-04-21T10:50:30.620Z,37.08
2016-04-21T10:51:30.638Z,36.69
2016-04-21T10:52:30.672Z,36.98
2016-04-21T10:53:30.675Z,36.88
2016-04-21T10:54:30.678Z,37.08
2016-04-21T10:55:30.695Z,36.79
2016-04-21T10:56:30.683Z,36.9
2016-04-21T10:57:30.685Z,36.8
2016-04-21T10:58:30.703Z,36.8
2016-04-21T10:59:30.706Z,36.8
2016-04-21T11:00:30.708Z,36.9
2016-04-21T11:01:30.727Z,36.71
2016-04-21T11:02:30.714Z,36.71
2016-04-21T11:03:30.733Z,37.19
2016-04-21T11:04:30.750Z,37.1
2016-04-21T11:05:30.769Z,36.71
2016-04-21T11:06:30.756Z,36.9
2016-04-21T11:07:30.775Z,36.8
2016-04-21T11:08:30.777Z,36.63
2016-04-21T11:09:30.796Z,36.9
2016-04-21T11:10:30.782Z,36.82
2016-04-21T11:11:30.801Z,36.82
2016-04-21T11:12:30.819Z,36.63
2016-04-21T11:13:30.822Z,36.82
2016-04-21T11:14:30.824Z,36.63
2016-04-21T11:15:30.827Z,36.44
2016-04-21T11:16:30.846Z,36.53
2016-04-21T11:17:30.849Z,36.63
2016-04-21T11:18:30.866Z,37.02
2016-04-21T11:19:30.869Z,36.82
2016-04-21T11:20:30.872Z,36.82
2016-04-21T11:21:30.875Z,36.46
2016-04-21T11:22:30.908Z,36.72
2016-04-21T11:23:30.912Z,36.55
2016-04-21T11:24:30.898Z,36.94
2016-04-21T11:25:30.917Z,36.65
2016-04-21T11:26:30.903Z,36.16
2016-04-21T11:27:30.937Z,36.07
2016-04-21T11:28:30.925Z,36.16
2016-04-21T11:29:30.943Z,36.26
2016-04-21T11:30:30.961Z,36.46
2016-04-21T11:31:30.964Z,36.16
2016-04-21T11:32:30.966Z,36.55
2016-04-21T11:33:30.969Z,36.36
2016-04-21T11:34:30.988Z,35.97
2016-04-21T11:35:30.991Z,35.89
2016-04-21T11:36:31.008Z,36.07
2016-04-21T11:37:31.011Z,35.89
2016-04-21T11:38:31.013Z,35.7
2016-04-21T11:39:31.016Z,36.47
2016-04-21T11:40:31.051Z,35.89
2016-04-21T11:41:31.038Z,36.08
2016-04-21T11:42:31.072Z,35.89
2016-04-21T11:43:31.074Z,35.99
2016-04-21T11:44:31.062Z,35.8
2016-04-21T11:45:31.080Z,35.8
2016-04-21T11:46:31.099Z,35.5
2016-04-21T11:47:31.085Z,35.99
2016-04-21T11:48:31.087Z,36.08
2016-04-21T11:49:31.121Z,35.99
2016-04-21T11:50:31.124Z,35.8
2016-04-21T11:51:31.127Z,35.7
2016-04-21T11:52:31.130Z,35.89
2016-04-21T11:53:31.304Z,36
2016-04-21T11:54:31.150Z,35.8
2016-04-21T11:55:31.153Z,35.6
2016-04-21T11:56:31.172Z,35.72
2016-04-21T11:57:31.190Z,35.81
2016-04-21T11:58:31.193Z,35.81
2016-04-21T11:59:31.195Z,35.62
2016-04-21T12:00:31.214Z,35.81
2016-04-21T12:01:31.216Z,35.91
2016-04-21T12:02:31.203Z,35.52
2016-04-21T12:03:31.238Z,35.72
2016-04-21T12:04:31.256Z,35.52
2016-04-21T12:05:31.244Z,35.42
2016-04-21T12:06:31.261Z,35.42
2016-04-21T12:07:31.264Z,35.23
2016-04-21T12:08:31.282Z,35.33
2016-04-21T12:09:31.269Z,35.25
2016-04-21T12:10:31.303Z,35.44
2016-04-21T12:11:31.290Z,35.15
2016-04-21T12:12:31.308Z,34.77
2016-04-21T12:13:31.311Z,35.54
2016-04-21T12:14:31.313Z,34.86
2016-04-21T12:15:31.332Z,35.15
2016-04-21T12:16:31.351Z,35.15
2016-04-21T12:17:31.338Z,35.05
2016-04-21T12:18:31.356Z,34.77
2016-04-21T12:19:31.374Z,34.96
2016-04-21T12:20:31.392Z,35.35
2016-04-21T12:21:31.379Z,34.96
2016-04-21T12:22:31.398Z,35.25
2016-04-21T12:23:31.400Z,34.96
2016-04-21T12:24:31.420Z,35.25
2016-04-21T12:25:31.422Z,34.67
2016-04-21T12:26:31.440Z,34.96
2016-04-21T12:27:31.442Z,34.67
2016-04-21T12:28:31.446Z,35.05
2016-04-21T12:29:31.464Z,35.15
2016-04-21T12:30:31.466Z,34.67
2016-04-21T12:31:31.469Z,34.69
2016-04-21T12:32:31.487Z,35.27
2016-04-21T12:33:31.490Z,35.07
2016-04-21T12:34:31.492Z,35.07
2016-04-21T12:35:31.511Z,34.78
2016-04-21T12:36:31.544Z,35.07
2016-04-21T12:37:31.516Z,34.97
2016-04-21T12:38:31.550Z,35.36
2016-04-21T12:39:31.553Z,35.75
2016-04-21T12:40:31.571Z,35.56
2016-04-21T12:41:31.558Z,35.46
2016-04-21T12:42:31.593Z,35.66
2016-04-21T12:43:31.580Z,35.46
2016-04-21T12:44:31.598Z,35.27
2016-04-21T12:45:31.601Z,35.27
2016-04-21T12:46:31.618Z,34.69
2016-04-21T12:47:31.621Z,34.59
2016-04-21T12:48:31.640Z,34.97
2016-04-21T12:49:31.626Z,34.88
2016-04-21T12:50:31.646Z,34.88
2016-04-21T12:51:31.663Z,35.17
2016-04-21T12:52:31.651Z,35.27
2016-04-21T12:53:31.669Z,35.17
2016-04-21T12:54:31.671Z,34.69